Time;durP1;ratioP1;P1;durP2;ratioP2;P2;SDS_P1;SDS_P2;PMS_P1;PMS_P2;Temp;Humidity;BMP_temperature;BMP_pressure;BME280_temperature;BME280_humidity;BME280_pressure;Samples;Min_cycle;Max_cycle;Signal;HPM_P1;HPM_P2
2021/04/25 00:00:07;;;;;;;;;;;22.10;34.20;;;;;;1594260;72;1140;-59
2021/04/25 00:02:09;;;;;;;;;;;22.20;34.30;;;;;;1607336;72;759;-59
2021/04/25 00:04:14;;;;;;;;;;;22.30;34.50;;;;;;1602785;72;665;-58
2021/04/25 00:06:14;;;;;;;;;;;22.20;34.20;;;;;;1607559;72;1665;-58
2021/04/25 00:08:16;;;;;;;;;;;22.20;34.30;;;;;;1597157;72;699;-59
2021/04/25 00:10:18;;;;;;;;;;;22.10;34.30;;;;;;1599875;72;1093;-61
2021/04/25 00:12:20;;;;;;;;;;;22.10;34.20;;;;;;1600355;72;738;-58
2021/04/25 00:14:22;;;;;;;;;;;22.20;34.20;;;;;;1591563;72;710;-59
2021/04/25 00:16:24;;;;;;;;;;;22.10;34.30;;;;;;1599978;72;726;-58
2021/04/25 00:18:26;;;;;;;;;;;22.00;34.40;;;;;;1598987;72;1906;-58
2021/04/25 00:20:27;;;;;;;;;;;21.90;34.50;;;;;;1604576;72;1100;-58
2021/04/25 00:22:29;;;;;;;;;;;22.00;34.60;;;;;;1599088;72;711;-57
2021/04/25 00:24:31;;;;;;;;;;;22.00;34.50;;;;;;1595566;72;801;-58
2021/04/25 00:26:33;;;;;;;;;;;21.90;34.60;;;;;;1594044;72;802;-59
2021/04/25 00:28:35;;;;;;;;;;;21.90;34.60;;;;;;1592059;72;607;-59
2021/04/25 00:30:37;;;;;;;;;;;21.90;34.70;;;;;;1593882;72;1123;-57
2021/04/25 00:32:39;;;;;;;;;;;22.00;34.60;;;;;;1597428;72;792;-57
2021/04/25 00:34:40;;;;;;;;;;;22.00;34.40;;;;;;1600982;72;713;-56
2021/04/25 00:36:43;;;;;;;;;;;22.00;34.40;;;;;;1597075;72;819;-56
2021/04/25 00:38:45;;;;;;;;;;;22.00;34.50;;;;;;1597957;72;1910;-59
2021/04/25 00:40:47;;;;;;;;;;;22.00;34.40;;;;;;1585709;72;1120;-58
2021/04/25 00:42:49;;;;;;;;;;;22.10;34.60;;;;;;1595129;72;863;-59
2021/04/25 00:44:51;;;;;;;;;;;22.10;34.40;;;;;;1599980;72;703;-57
2021/04/25 00:46:53;;;;;;;;;;;22.10;34.40;;;;;;1595515;72;716;-57
2021/04/25 00:48:54;;;;;;;;;;;22.10;34.40;;;;;;1596378;72;1159;-57
2021/04/25 00:50:56;;;;;;;;;;;22.10;34.30;;;;;;1596670;72;733;-60
2021/04/25 00:52:58;;;;;;;;;;;22.10;34.30;;;;;;1601400;72;744;-59
2021/04/25 00:55:00;;;;;;;;;;;22.20;34.20;;;;;;1595078;72;689;-59
2021/04/25 00:57:02;;;;;;;;;;;22.10;34.20;;;;;;1596415;72;754;-60
2021/04/25 00:59:04;;;;;;;;;;;22.20;34.30;;;;;;1595295;72;1930;-59
2021/04/25 01:01:06;;;;;;;;;;;22.00;34.40;;;;;;1598092;72;673;-60
2021/04/25 01:03:08;;;;;;;;;;;22.00;34.50;;;;;;1593367;72;567;-58
2021/04/25 01:05:11;;;;;;;;;;;22.00;34.40;;;;;;1596508;72;765;-57
2021/04/25 01:07:13;;;;;;;;;;;22.00;34.30;;;;;;1593717;72;592;-59
2021/04/25 01:09:15;;;;;;;;;;;22.10;34.50;;;;;;1589722;72;1156;-56
2021/04/25 01:11:18;;;;;;;;;;;22.10;34.50;;;;;;1593636;72;801;-57
2021/04/25 01:13:20;;;;;;;;;;;22.10;34.30;;;;;;1598227;72;733;-58
2021/04/25 01:15:22;;;;;;;;;;;22.20;34.30;;;;;;1598316;72;735;-60
2021/04/25 01:17:24;;;;;;;;;;;22.20;34.30;;;;;;1602143;72;807;-56
2021/04/25 01:19:26;;;;;;;;;;;22.20;34.30;;;;;;1590777;72;1942;-57
2021/04/25 01:21:28;;;;;;;;;;;22.10;34.30;;;;;;1595510;72;744;-57
2021/04/25 01:23:30;;;;;;;;;;;22.10;34.30;;;;;;1600819;72;786;-58
2021/04/25 01:25:32;;;;;;;;;;;22.20;34.30;;;;;;1601814;72;738;-60
2021/04/25 01:27:34;;;;;;;;;;;22.20;34.20;;;;;;1594069;72;793;-60
2021/04/25 01:29:36;;;;;;;;;;;22.10;34.20;;;;;;1591251;72;1121;-59
2021/04/25 01:31:38;;;;;;;;;;;22.20;34.10;;;;;;1600232;72;901;-58
2021/04/25 01:33:40;;;;;;;;;;;22.20;34.20;;;;;;1602387;72;793;-57
2021/04/25 01:35:42;;;;;;;;;;;22.10;34.20;;;;;;1595108;72;768;-58
2021/04/25 01:37:44;;;;;;;;;;;22.10;34.20;;;;;;1587440;70;218273;-68
2021/04/25 01:39:45;;;;;;;;;;;22.10;34.20;;;;;;1583715;74;1936;-66
2021/04/25 01:41:47;;;;;;;;;;;22.10;34.30;;;;;;1581632;73;840;-65
2021/04/25 01:43:49;;;;;;;;;;;22.10;34.40;;;;;;1579365;73;798;-66
2021/04/25 01:45:51;;;;;;;;;;;22.00;34.40;;;;;;1582848;73;695;-65
2021/04/25 01:47:54;;;;;;;;;;;22.00;34.50;;;;;;1566967;73;1186;-66
2021/04/25 01:49:56;;;;;;;;;;;22.00;34.50;;;;;;1558398;74;688;-66
2021/04/25 01:51:57;;;;;;;;;;;22.10;34.40;;;;;;1559795;74;774;-66
2021/04/25 01:53:59;;;;;;;;;;;22.10;34.40;;;;;;1559705;74;774;-66
2021/04/25 01:56:02;;;;;;;;;;;22.20;34.40;;;;;;1559449;74;817;-66
2021/04/25 01:58:04;;;;;;;;;;;22.20;34.40;;;;;;1560018;74;1213;-66
2021/04/25 02:00:08;;;;;;;;;;;22.20;34.30;;;;;;1562573;74;1936;-66
2021/04/25 02:02:10;;;;;;;;;;;22.20;34.40;;;;;;1559380;74;791;-68
2021/04/25 02:04:12;;;;;;;;;;;22.20;34.30;;;;;;1558737;74;691;-67
2021/04/25 02:06:13;;;;;;;;;;;22.20;34.30;;;;;;1557803;74;825;-66
2021/04/25 02:08:15;;;;;;;;;;;22.20;34.30;;;;;;1559178;74;1159;-63
2021/04/25 02:10:17;;;;;;;;;;;22.20;34.20;;;;;;1558855;74;743;-66
2021/04/25 02:12:19;;;;;;;;;;;22.20;34.40;;;;;;1559293;74;750;-65
2021/04/25 02:14:21;;;;;;;;;;;22.10;34.30;;;;;;1556323;74;674;-65
2021/04/25 02:16:23;;;;;;;;;;;22.20;34.20;;;;;;1556767;74;768;-65
2021/04/25 02:18:25;;;;;;;;;;;22.20;34.20;;;;;;1556377;75;1099;-67
2021/04/25 02:20:27;;;;;;;;;;;22.20;34.20;;;;;;1556675;74;1947;-65
2021/04/25 02:22:28;;;;;;;;;;;22.20;34.20;;;;;;1558470;74;793;-66
2021/04/25 02:24:30;;;;;;;;;;;22.10;34.20;;;;;;1557417;74;790;-66
2021/04/25 02:26:32;;;;;;;;;;;22.20;34.20;;;;;;1556174;74;1168;-67
2021/04/25 02:28:34;;;;;;;;;;;22.20;34.20;;;;;;1556085;74;737;-65
2021/04/25 02:30:36;;;;;;;;;;;22.10;34.20;;;;;;1554200;75;727;-66
2021/04/25 02:32:38;;;;;;;;;;;22.30;34.40;;;;;;1557445;74;789;-65
2021/04/25 02:34:40;;;;;;;;;;;22.10;34.20;;;;;;1557743;74;774;-68
2021/04/25 02:36:42;;;;;;;;;;;22.10;34.30;;;;;;1555999;74;1113;-66
2021/04/25 02:38:43;;;;;;;;;;;22.20;34.30;;;;;;1556043;74;780;-66
2021/04/25 02:40:45;;;;;;;;;;;22.20;34.40;;;;;;1556980;74;1944;-65
2021/04/25 02:42:47;;;;;;;;;;;22.20;34.40;;;;;;1557716;74;827;-66
2021/04/25 02:44:49;;;;;;;;;;;22.10;34.40;;;;;;1558143;74;813;-69
2021/04/25 02:46:51;;;;;;;;;;;22.10;34.40;;;;;;1558011;74;1151;-66
2021/04/25 02:48:53;;;;;;;;;;;22.10;34.50;;;;;;1556078;74;800;-67
2021/04/25 02:50:55;;;;;;;;;;;22.10;34.60;;;;;;1557322;74;729;-67
2021/04/25 02:52:57;;;;;;;;;;;22.10;34.60;;;;;;1556828;74;803;-66
2021/04/25 02:54:59;;;;;;;;;;;22.20;34.60;;;;;;1556787;74;831;-66
2021/04/25 02:57:01;;;;;;;;;;;22.10;34.70;;;;;;1555982;74;1071;-66
2021/04/25 02:59:03;;;;;;;;;;;22.10;34.70;;;;;;1556165;74;1951;-66
2021/04/25 03:01:04;;;;;;;;;;;22.10;34.70;;;;;;1555971;75;775;-66
2021/04/25 03:03:06;;;;;;;;;;;22.10;34.70;;;;;;1558824;74;806;-68
2021/04/25 03:05:09;;;;;;;;;;;22.10;34.70;;;;;;1558182;74;735;-67
2021/04/25 03:07:11;;;;;;;;;;;22.20;34.70;;;;;;1557317;74;1121;-67
2021/04/25 03:09:12;;;;;;;;;;;22.20;34.70;;;;;;1558313;74;792;-67
2021/04/25 03:11:14;;;;;;;;;;;22.10;34.70;;;;;;1559572;74;804;-66
2021/04/25 03:13:16;;;;;;;;;;;22.10;34.70;;;;;;1557308;74;670;-64
2021/04/25 03:15:18;;;;;;;;;;;22.20;34.60;;;;;;1557461;74;746;-65
2021/04/25 03:17:20;;;;;;;;;;;22.20;34.70;;;;;;1557142;74;1138;-66
2021/04/25 03:19:23;;;;;;;;;;;22.20;34.80;;;;;;1556112;74;1953;-66
2021/04/25 03:21:25;;;;;;;;;;;22.00;35.00;;;;;;1556310;74;745;-66
2021/04/25 03:23:27;;;;;;;;;;;22.00;35.30;;;;;;1558302;74;743;-65
2021/04/25 03:25:29;;;;;;;;;;;22.00;35.20;;;;;;1557179;74;797;-66
2021/04/25 03:27:31;;;;;;;;;;;22.00;35.40;;;;;;1559935;74;1182;-67
2021/04/25 03:29:32;;;;;;;;;;;21.90;35.40;;;;;;1556758;74;945;-67
2021/04/25 03:31:34;;;;;;;;;;;21.90;35.50;;;;;;1556739;74;710;-67
2021/04/25 03:33:36;;;;;;;;;;;22.00;35.20;;;;;;1559908;74;651;-68
2021/04/25 03:35:38;;;;;;;;;;;22.00;35.20;;;;;;1556857;74;773;-65
2021/04/25 03:37:40;;;;;;;;;;;22.00;35.00;;;;;;1558973;74;1087;-67
2021/04/25 03:39:42;;;;;;;;;;;22.00;34.90;;;;;;1555221;74;2091;-67
2021/04/25 03:41:44;;;;;;;;;;;22.00;34.80;;;;;;1555403;74;846;-66
2021/04/25 03:43:46;;;;;;;;;;;22.00;34.80;;;;;;1555348;74;729;-67
2021/04/25 03:45:48;;;;;;;;;;;22.10;34.80;;;;;;1556177;74;753;-66
2021/04/25 03:47:50;;;;;;;;;;;22.10;34.70;;;;;;1557528;74;1137;-69
2021/04/25 03:49:52;;;;;;;;;;;22.00;34.60;;;;;;1556282;74;652;-67
2021/04/25 03:51:55;;;;;;;;;;;22.10;34.70;;;;;;1556252;74;728;-67
2021/04/25 03:53:57;;;;;;;;;;;22.10;34.70;;;;;;1553810;74;717;-66
2021/04/25 03:55:59;;;;;;;;;;;22.20;34.70;;;;;;1557081;74;634;-67
2021/04/25 03:58:01;;;;;;;;;;;22.10;34.70;;;;;;1560427;74;1131;-66
2021/04/25 04:00:04;;;;;;;;;;;22.10;34.60;;;;;;1556777;74;1947;-66
2021/04/25 04:02:06;;;;;;;;;;;22.20;34.70;;;;;;1554420;74;703;-66
2021/04/25 04:04:08;;;;;;;;;;;22.20;34.60;;;;;;1559194;74;823;-67
2021/04/25 04:06:10;;;;;;;;;;;22.20;34.60;;;;;;1556208;74;746;-68
2021/04/25 04:08:12;;;;;;;;;;;22.20;34.60;;;;;;1555627;74;1171;-66
2021/04/25 04:10:13;;;;;;;;;;;22.20;34.50;;;;;;1558079;74;801;-67
2021/04/25 04:12:15;;;;;;;;;;;22.10;34.60;;;;;;1555804;74;725;-65
2021/04/25 04:14:17;;;;;;;;;;;22.20;34.60;;;;;;1558381;74;742;-67
2021/04/25 04:16:19;;;;;;;;;;;22.10;34.60;;;;;;1556066;74;726;-67
2021/04/25 04:18:21;;;;;;;;;;;22.10;34.70;;;;;;1556981;74;1174;-66
2021/04/25 04:20:23;;;;;;;;;;;22.20;34.70;;;;;;1556525;74;1942;-67
2021/04/25 04:22:25;;;;;;;;;;;22.20;34.70;;;;;;1559605;74;837;-68
2021/04/25 04:24:27;;;;;;;;;;;22.10;34.70;;;;;;1555701;74;745;-66
2021/04/25 04:26:28;;;;;;;;;;;22.00;34.80;;;;;;1556603;74;762;-65
2021/04/25 04:28:30;;;;;;;;;;;22.00;34.90;;;;;;1556330;74;1140;-64
2021/04/25 04:30:32;;;;;;;;;;;22.00;35.00;;;;;;1558169;74;725;-65
2021/04/25 04:32:34;;;;;;;;;;;22.00;34.90;;;;;;1557272;74;823;-65
2021/04/25 04:34:37;;;;;;;;;;;22.00;34.80;;;;;;1556419;74;704;-65
2021/04/25 04:36:39;;;;;;;;;;;22.00;34.70;;;;;;1556804;74;1120;-65
2021/04/25 04:38:40;;;;;;;;;;;22.00;34.80;;;;;;1558079;74;793;-65
2021/04/25 04:40:42;;;;;;;;;;;21.90;34.80;;;;;;1556594;76;1983;-66
2021/04/25 04:42:44;;;;;;;;;;;22.00;34.90;;;;;;1560079;74;752;-67
2021/04/25 04:44:46;;;;;;;;;;;22.00;35.00;;;;;;1559000;74;794;-66
2021/04/25 04:46:48;;;;;;;;;;;22.00;35.10;;;;;;1559385;74;1128;-65
2021/04/25 04:48:50;;;;;;;;;;;21.90;35.10;;;;;;1558985;74;726;-69
2021/04/25 04:50:52;;;;;;;;;;;22.00;35.00;;;;;;1560049;74;766;-70
2021/04/25 04:52:53;;;;;;;;;;;22.00;34.90;;;;;;1559818;74;837;-67
2021/04/25 04:54:57;;;;;;;;;;;22.10;35.00;;;;;;1561056;74;721;-67
2021/04/25 04:56:59;;;;;;;;;;;22.00;34.90;;;;;;1559112;74;1157;-66
2021/04/25 04:59:01;;;;;;;;;;;22.10;34.80;;;;;;1560373;74;834;-69
2021/04/25 05:01:03;;;;;;;;;;;22.00;35.00;;;;;;1561631;74;1976;-66
2021/04/25 05:03:05;;;;;;;;;;;22.00;35.00;;;;;;1559088;74;828;-68
2021/04/25 05:05:07;;;;;;;;;;;22.00;35.10;;;;;;1559630;74;829;-66
2021/04/25 05:07:09;;;;;;;;;;;21.90;35.20;;;;;;1561589;74;1122;-67
2021/04/25 05:09:11;;;;;;;;;;;21.90;35.30;;;;;;1561442;74;885;-66
2021/04/25 05:11:13;;;;;;;;;;;21.80;35.40;;;;;;1560973;74;732;-67
2021/04/25 05:13:15;;;;;;;;;;;21.90;35.40;;;;;;1559255;74;731;-66
2021/04/25 05:15:17;;;;;;;;;;;21.90;35.50;;;;;;1559965;74;771;-68
2021/04/25 05:17:19;;;;;;;;;;;21.90;35.50;;;;;;1558557;74;1121;-66
2021/04/25 05:19:21;;;;;;;;;;;21.90;35.50;;;;;;1557754;74;769;-67
2021/04/25 05:21:23;;;;;;;;;;;21.80;35.40;;;;;;1560628;74;1957;-71
2021/04/25 05:23:24;;;;;;;;;;;21.80;35.50;;;;;;1559814;74;756;-74
2021/04/25 05:25:26;;;;;;;;;;;21.90;35.20;;;;;;1559966;75;675;-72
2021/04/25 05:27:28;;;;;;;;;;;21.80;35.30;;;;;;1560883;74;1125;-72
2021/04/25 05:29:30;;;;;;;;;;;21.70;35.40;;;;;;1561791;74;754;-72
2021/04/25 05:31:32;;;;;;;;;;;21.80;35.50;;;;;;1558930;74;833;-72
2021/04/25 05:33:34;;;;;;;;;;;21.80;35.00;;;;;;1560755;74;749;-73
2021/04/25 05:35:36;;;;;;;;;;;21.80;33.90;;;;;;1557458;74;715;-73
2021/04/25 05:37:38;;;;;;;;;;;21.80;34.70;;;;;;1557264;74;1116;-71
2021/04/25 05:39:40;;;;;;;;;;;21.80;35.20;;;;;;1557193;74;776;-72
2021/04/25 05:41:41;;;;;;;;;;;21.80;34.90;;;;;;1556832;74;1934;-73
2021/04/25 05:43:45;;;;;;;;;;;21.90;34.70;;;;;;1557320;74;658;-71
2021/04/25 05:45:47;;;;;;;;;;;22.00;34.40;;;;;;1555851;74;748;-71
2021/04/25 05:47:50;;;;;;;;;;;22.10;34.20;;;;;;1561257;74;1162;-71
2021/04/25 05:49:52;;;;;;;;;;;22.10;34.00;;;;;;1557228;74;800;-70
2021/04/25 05:51:54;;;;;;;;;;;22.10;33.90;;;;;;1560008;74;754;-70
2021/04/25 05:53:55;;;;;;;;;;;22.20;33.80;;;;;;1557860;74;713;-70
2021/04/25 05:55:57;;;;;;;;;;;22.10;33.90;;;;;;1560266;74;738;-70
2021/04/25 05:58:00;;;;;;;;;;;22.00;33.90;;;;;;1563102;74;1140;-69
2021/04/25 06:00:02;;;;;;;;;;;22.00;34.00;;;;;;1556348;74;1912;-74
2021/04/25 06:02:04;;;;;;;;;;;21.90;34.10;;;;;;1556661;74;722;-72
2021/04/25 06:04:06;;;;;;;;;;;21.90;34.10;;;;;;1557255;74;782;-72
2021/04/25 06:06:08;;;;;;;;;;;21.90;34.20;;;;;;1557231;74;748;-67
2021/04/25 06:08:10;;;;;;;;;;;21.90;34.10;;;;;;1556446;74;1061;-68
2021/04/25 06:10:12;;;;;;;;;;;22.00;33.30;;;;;;1557565;74;702;-67
2021/04/25 06:12:14;;;;;;;;;;;22.20;32.10;;;;;;1557097;74;815;-67
2021/04/25 06:14:16;;;;;;;;;;;22.20;31.50;;;;;;1555525;74;782;-65
2021/04/25 06:16:18;;;;;;;;;;;22.20;30.60;;;;;;1557012;74;869;-68
2021/04/25 06:18:19;;;;;;;;;;;22.30;30.90;;;;;;1558672;74;1115;-68
2021/04/25 06:20:21;;;;;;;;;;;22.30;30.70;;;;;;1558296;74;1946;-67
2021/04/25 06:22:23;;;;;;;;;;;22.30;30.70;;;;;;1556233;74;755;-68
2021/04/25 06:24:25;;;;;;;;;;;22.30;30.80;;;;;;1556802;74;677;-67
2021/04/25 06:26:27;;;;;;;;;;;22.40;30.50;;;;;;1557715;74;758;-67
2021/04/25 06:28:29;;;;;;;;;;;22.40;30.40;;;;;;1559188;74;1113;-67
2021/04/25 06:30:31;;;;;;;;;;;22.40;30.20;;;;;;1558883;74;683;-66
2021/04/25 06:32:33;;;;;;;;;;;22.40;30.20;;;;;;1558068;74;747;-67
2021/04/25 06:34:34;;;;;;;;;;;22.40;29.20;;;;;;1551975;74;754;-71
2021/04/25 06:36:41;;;;;;;;;;;22.40;29.80;;;;;;1555746;74;1131;-63
2021/04/25 06:38:40;;;;;;;;;;;22.40;28.60;;;;;;1552734;74;1785;-64
2021/04/25 06:40:42;;;;;;;;;;;22.40;28.20;;;;;;1548034;74;1937;-64
2021/04/25 06:42:44;;;;;;;;;;;22.30;28.50;;;;;;1548392;74;928;-64
2021/04/25 06:44:46;;;;;;;;;;;22.30;28.10;;;;;;1550581;74;787;-65
2021/04/25 06:46:48;;;;;;;;;;;22.10;27.90;;;;;;1566674;74;1145;-64
2021/04/25 06:48:49;;;;;;;;;;;22.00;27.90;;;;;;1556220;74;732;-66
2021/04/25 06:50:51;;;;;;;;;;;22.10;28.40;;;;;;1552605;74;780;-64
2021/04/25 06:52:53;;;;;;;;;;;22.10;28.70;;;;;;1560449;74;805;-64
2021/04/25 06:54:55;;;;;;;;;;;22.10;28.30;;;;;;1557496;74;781;-64
2021/04/25 06:56:57;;;;;;;;;;;22.10;28.60;;;;;;1562738;74;1156;-64
2021/04/25 06:58:59;;;;;;;;;;;22.10;29.00;;;;;;1550999;74;778;-65
2021/04/25 07:01:01;;;;;;;;;;;22.20;29.20;;;;;;1554506;74;1948;-65
2021/04/25 07:03:02;;;;;;;;;;;22.40;29.50;;;;;;1564996;74;757;-65
2021/04/25 07:05:05;;;;;;;;;;;22.40;29.50;;;;;;1550059;74;806;-66
2021/04/25 07:07:07;;;;;;;;;;;22.40;28.70;;;;;;1541684;76;1134;-65
2021/04/25 07:09:09;;;;;;;;;;;22.50;29.40;;;;;;1566886;74;797;-65
2021/04/25 07:11:11;;;;;;;;;;;22.50;29.40;;;;;;1567105;74;887;-66
2021/04/25 07:13:13;;;;;;;;;;;22.50;29.10;;;;;;1567132;74;743;-65
2021/04/25 07:15:15;;;;;;;;;;;22.50;29.40;;;;;;1562377;76;811;-64
2021/04/25 07:17:16;;;;;;;;;;;22.50;29.20;;;;;;1562076;74;1160;-64
2021/04/25 07:19:18;;;;;;;;;;;22.60;29.50;;;;;;1562694;74;772;-64
2021/04/25 07:21:20;;;;;;;;;;;22.60;28.90;;;;;;1554598;74;1940;-65
2021/04/25 07:23:24;;;;;;;;;;;22.60;28.10;;;;;;1564399;74;807;-65
2021/04/25 07:25:26;;;;;;;;;;;22.50;27.60;;;;;;1556035;76;692;-65
2021/04/25 07:27:28;;;;;;;;;;;22.50;28.30;;;;;;1568764;74;1184;-66
2021/04/25 07:29:30;;;;;;;;;;;22.50;27.90;;;;;;1553415;74;799;-63
2021/04/25 07:31:32;;;;;;;;;;;22.50;28.00;;;;;;1550256;74;825;-65
2021/04/25 07:33:34;;;;;;;;;;;22.50;27.60;;;;;;1566162;74;735;-65
2021/04/25 07:35:36;;;;;;;;;;;22.50;27.80;;;;;;1566407;74;799;-71
2021/04/25 07:37:38;;;;;;;;;;;22.60;28.20;;;;;;1567111;71;214198;-55
2021/04/25 07:39:40;;;;;;;;;;;22.50;27.50;;;;;;1560592;74;1219;-53
2021/04/25 07:41:42;;;;;;;;;;;22.50;27.60;;;;;;1554695;75;1939;-55
2021/04/25 07:43:44;;;;;;;;;;;22.50;28.20;;;;;;1560150;75;719;-55
2021/04/25 07:45:46;;;;;;;;;;;22.50;27.80;;;;;;1543292;75;725;-54
2021/04/25 07:47:47;;;;;;;;;;;22.50;26.60;;;;;;1551181;75;792;-53
2021/04/25 07:49:49;;;;;;;;;;;22.40;26.70;;;;;;1557808;74;1124;-56
2021/04/25 07:51:51;;;;;;;;;;;22.40;27.00;;;;;;1554603;75;698;-54
2021/04/25 07:53:55;;;;;;;;;;;22.40;27.00;;;;;;1534756;75;716;-55
2021/04/25 07:55:57;;;;;;;;;;;22.40;27.50;;;;;;1524722;75;807;-55
2021/04/25 07:57:59;;;;;;;;;;;22.50;27.20;;;;;;1533389;75;737;-54
2021/04/25 08:00:00;;;;;;;;;;;22.50;27.10;;;;;;1542230;75;1090;-57
2021/04/25 08:02:02;;;;;;;;;;;22.50;26.50;;;;;;1543223;75;1937;-57
2021/04/25 08:04:04;;;;;;;;;;;22.40;26.30;;;;;;1546308;75;906;-55
2021/04/25 08:06:06;;;;;;;;;;;22.40;27.00;;;;;;1536567;75;803;-54
2021/04/25 08:08:08;;;;;;;;;;;22.40;26.80;;;;;;1542610;75;709;-53
2021/04/25 08:10:10;;;;;;;;;;;22.40;26.60;;;;;;1558730;74;1135;-56
2021/04/25 08:12:12;;;;;;;;;;;22.40;26.30;;;;;;1552924;75;741;-53
2021/04/25 08:14:14;;;;;;;;;;;22.40;26.70;;;;;;1552979;75;1115;-55
2021/04/25 08:16:16;;;;;;;;;;;22.50;26.90;;;;;;1536684;75;817;-57
2021/04/25 08:18:18;;;;;;;;;;;22.40;26.60;;;;;;1524416;75;695;-55
2021/04/25 08:20:20;;;;;;;;;;;22.50;27.00;;;;;;1539711;75;1139;-57
2021/04/25 08:22:22;;;;;;;;;;;22.30;26.30;;;;;;1532891;75;1944;-56
2021/04/25 08:24:24;;;;;;;;;;;22.20;26.30;;;;;;1529200;75;663;-55
2021/04/25 08:26:26;;;;;;;;;;;22.20;26.80;;;;;;1533572;75;1052;-55
2021/04/25 08:28:28;;;;;;;;;;;22.20;26.70;;;;;;1541363;75;798;-52
2021/04/25 08:30:30;;;;;;;;;;;22.00;26.20;;;;;;1535494;75;1173;-53
2021/04/25 08:32:31;;;;;;;;;;;21.90;26.30;;;;;;1536109;75;792;-55
2021/04/25 08:34:34;;;;;;;;;;;21.90;26.40;;;;;;1524066;75;697;-54
2021/04/25 08:36:36;;;;;;;;;;;21.70;26.30;;;;;;1535232;75;710;-56
2021/04/25 08:38:38;;;;;;;;;;;21.70;26.50;;;;;;1556050;74;778;-53
2021/04/25 08:40:40;;;;;;;;;;;21.60;25.90;;;;;;1536626;75;1160;-53
2021/04/25 08:42:43;;;;;;;;;;;21.40;26.70;;;;;;1530191;75;1898;-53
2021/04/25 08:44:45;;;;;;;;;;;21.40;26.20;;;;;;1532310;75;804;-55
2021/04/25 08:46:47;;;;;;;;;;;21.50;26.70;;;;;;1540428;75;768;-55
2021/04/25 08:48:50;;;;;;;;;;;21.60;26.90;;;;;;1535068;75;807;-55
2021/04/25 08:50:52;;;;;;;;;;;21.60;27.10;;;;;;1529830;75;735;-55
2021/04/25 08:52:54;;;;;;;;;;;21.60;26.50;;;;;;1530556;75;762;-57
2021/04/25 08:54:55;;;;;;;;;;;21.40;26.90;;;;;;1535940;75;712;-55
2021/04/25 08:56:57;;;;;;;;;;;21.30;27.30;;;;;;1542374;75;1037;-55
2021/04/25 08:58:59;;;;;;;;;;;21.30;27.60;;;;;;1533896;75;1245;-53
2021/04/25 09:01:01;;;;;;;;;;;21.30;27.50;;;;;;1531108;75;800;-53
2021/04/25 09:03:03;;;;;;;;;;;21.40;27.40;;;;;;1551778;75;1948;-53
2021/04/25 09:05:05;;;;;;;;;;;21.30;27.50;;;;;;1543161;75;740;-55
2021/04/25 09:07:11;;;;;;;;;;;21.30;27.60;;;;;;1536640;75;719;-53
2021/04/25 09:09:11;;;;;;;;;;;21.30;27.90;;;;;;1504497;77;1601;-53
2021/04/25 09:11:29;;;;;;;;;;;21.30;27.60;;;;;;1537991;75;748;-55
2021/04/25 09:13:31;;;;;;;;;;;21.20;27.70;;;;;;1531495;75;765;-54
2021/04/25 09:15:36;;;;;;;;;;;21.20;28.30;;;;;;1530611;75;707;-55
2021/04/25 09:17:52;;;;;;;;;;;21.30;28.60;;;;;;1529737;75;708;-53
2021/04/25 09:19:57;;;;;;;;;;;21.00;27.20;;;;;;1544562;75;1142;-55
2021/04/25 09:22:00;;;;;;;;;;;20.70;28.00;;;;;;1529819;75;1897;-54
2021/04/25 09:24:20;;;;;;;;;;;20.60;28.50;;;;;;1520725;75;669;-55
2021/04/25 09:26:22;;;;;;;;;;;20.50;28.60;;;;;;1541332;75;789;-54
2021/04/25 09:28:24;;;;;;;;;;;20.70;29.20;;;;;;1517287;77;733;-55
2021/04/25 09:30:26;;;;;;;;;;;20.80;28.90;;;;;;1562919;75;1142;-54
2021/04/25 09:32:30;;;;;;;;;;;20.90;29.00;;;;;;1532648;75;759;-56
2021/04/25 09:34:32;;;;;;;;;;;20.90;29.20;;;;;;1528694;75;717;-54
2021/04/25 09:36:34;;;;;;;;;;;20.90;27.80;;;;;;1526555;75;696;-53
2021/04/25 09:38:36;;;;;;;;;;;20.90;28.70;;;;;;1541579;75;711;-55
2021/04/25 09:40:41;;;;;;;;;;;20.70;28.00;;;;;;1536101;75;1174;-54
2021/04/25 09:42:56;;;;;;;;;;;20.80;28.80;;;;;;1531858;75;1933;-58
2021/04/25 09:44:58;;;;;;;;;;;21.00;28.80;;;;;;1536612;75;819;-54
2021/04/25 09:47:02;;;;;;;;;;;21.00;27.30;;;;;;1535867;75;951;-57
2021/04/25 09:49:04;;;;;;;;;;;20.90;28.80;;;;;;1539365;75;1153;-54
2021/04/25 09:51:21;;;;;;;;;;;20.80;28.90;;;;;;1530636;75;732;-54
2021/04/25 09:53:22;;;;;;;;;;;20.80;28.70;;;;;;1521947;75;1550;-56
2021/04/25 09:55:26;;;;;;;;;;;20.50;28.10;;;;;;1531252;75;687;-55
2021/04/25 09:57:31;;;;;;;;;;;20.20;28.60;;;;;;1544739;75;763;-57
2021/04/25 09:59:35;;;;;;;;;;;20.20;29.00;;;;;;1538620;75;1155;-54
2021/04/25 10:01:38;;;;;;;;;;;20.20;29.60;;;;;;1546840;75;1923;-54
2021/04/25 10:03:47;;;;;;;;;;;20.30;29.70;;;;;;1529842;75;786;-55
2021/04/25 10:06:06;;;;;;;;;;;20.10;27.90;;;;;;1531840;75;1625;-55
2021/04/25 10:08:08;;;;;;;;;;;20.00;29.80;;;;;;1532660;75;717;-53
2021/04/25 10:10:11;;;;;;;;;;;19.90;29.50;;;;;;1535916;75;1146;-58
2021/04/25 10:12:13;;;;;;;;;;;20.10;29.80;;;;;;1531359;75;683;-55
2021/04/25 10:14:15;;;;;;;;;;;20.10;29.40;;;;;;1533181;75;794;-56
2021/04/25 10:16:18;;;;;;;;;;;20.20;29.80;;;;;;1536749;75;1060;-54
2021/04/25 10:18:20;;;;;;;;;;;20.10;29.50;;;;;;1525499;75;2062;-53
2021/04/25 10:20:22;;;;;;;;;;;20.00;29.40;;;;;;1534837;75;1249;-54
2021/04/25 10:22:24;;;;;;;;;;;19.90;30.10;;;;;;1545289;75;1933;-53
2021/04/25 10:24:26;;;;;;;;;;;19.90;30.10;;;;;;1545256;75;718;-54
2021/04/25 10:26:28;;;;;;;;;;;19.70;29.20;;;;;;1541494;75;746;-58
2021/04/25 10:28:40;;;;;;;;;;;19.80;30.40;;;;;;1553399;75;731;-53
2021/04/25 10:30:42;;;;;;;;;;;19.90;30.00;;;;;;1548141;75;1112;-55
2021/04/25 10:32:44;;;;;;;;;;;20.00;29.40;;;;;;1554532;75;740;-57
2021/04/25 10:34:50;;;;;;;;;;;19.80;29.80;;;;;;1535066;75;808;-57
2021/04/25 10:36:51;;;;;;;;;;;19.80;29.70;;;;;;1545589;74;1588;-56
2021/04/25 10:38:53;;;;;;;;;;;19.80;30.40;;;;;;1548442;75;1150;-56
2021/04/25 10:40:55;;;;;;;;;;;19.70;30.60;;;;;;1535872;75;865;-57
2021/04/25 10:42:59;;;;;;;;;;;19.70;30.00;;;;;;1494805;77;1952;-55
2021/04/25 10:45:03;;;;;;;;;;;19.70;31.20;;;;;;1541001;75;779;-57
2021/04/25 10:47:14;;;;;;;;;;;19.90;31.00;;;;;;1542977;75;741;-57
2021/04/25 10:49:26;;;;;;;;;;;20.00;29.70;;;;;;1547891;75;1163;-56
2021/04/25 10:51:30;;;;;;;;;;;19.80;29.60;;;;;;1507867;77;1160;-55
2021/04/25 10:53:36;;;;;;;;;;;19.90;29.90;;;;;;1538790;75;1664;-54
2021/04/25 10:55:38;;;;;;;;;;;19.90;29.80;;;;;;1545850;75;697;-56
2021/04/25 10:57:54;;;;;;;;;;;20.00;30.00;;;;;;1536308;75;714;-55
2021/04/25 10:59:57;;;;;;;;;;;20.10;29.50;;;;;;1539387;74;1147;-58
2021/04/25 11:01:59;;;;;;;;;;;20.20;29.50;;;;;;1534325;75;1925;-56
2021/04/25 11:04:01;;;;;;;;;;;20.50;29.60;;;;;;1550752;75;794;-57
2021/04/25 11:06:03;;;;;;;;;;;20.60;29.40;;;;;;1544192;75;741;-56
2021/04/25 11:08:07;;;;;;;;;;;20.60;29.80;;;;;;1540112;75;719;-56
2021/04/25 11:10:09;;;;;;;;;;;20.60;30.40;;;;;;1517637;75;1121;-55
2021/04/25 11:12:28;;;;;;;;;;;20.60;31.10;;;;;;1544999;75;768;-56
2021/04/25 11:14:32;;;;;;;;;;;20.60;32.00;;;;;;1534259;75;666;-55
2021/04/25 11:16:34;;;;;;;;;;;20.60;31.40;;;;;;1551071;75;1439;-55
2021/04/25 11:18:44;;;;;;;;;;;20.60;31.40;;;;;;1560784;75;705;-56
2021/04/25 11:20:46;;;;;;;;;;;20.60;31.50;;;;;;1543926;75;1107;-55
2021/04/25 11:22:48;;;;;;;;;;;20.80;31.60;;;;;;1544436;75;1927;-56
2021/04/25 11:24:50;;;;;;;;;;;20.80;31.70;;;;;;1541489;75;712;-55
2021/04/25 11:26:53;;;;;;;;;;;20.80;31.80;;;;;;1563180;75;731;-54
2021/04/25 11:28:55;;;;;;;;;;;20.70;30.70;;;;;;1556490;75;1195;-55
2021/04/25 11:30:56;;;;;;;;;;;20.60;31.20;;;;;;1540858;75;827;-56
2021/04/25 11:32:58;;;;;;;;;;;20.70;31.50;;;;;;1552686;75;732;-56
2021/04/25 11:35:01;;;;;;;;;;;20.80;31.80;;;;;;1517085;77;1184;-57
2021/04/25 11:37:05;;;;;;;;;;;20.80;32.10;;;;;;1555872;75;721;-56
2021/04/25 11:39:08;;;;;;;;;;;20.80;31.80;;;;;;1542635;75;1146;-57
2021/04/25 11:41:09;;;;;;;;;;;20.80;32.50;;;;;;1539604;75;791;-57
2021/04/25 11:43:11;;;;;;;;;;;20.80;31.30;;;;;;1540377;75;1939;-57
2021/04/25 11:45:27;;;;;;;;;;;20.80;31.40;;;;;;1540857;75;716;-56
2021/04/25 11:47:32;;;;;;;;;;;20.90;31.30;;;;;;1525791;75;1129;-58
2021/04/25 11:49:38;;;;;;;;;;;20.80;30.40;;;;;;1530780;75;1170;-56
2021/04/25 11:51:40;;;;;;;;;;;20.80;30.30;;;;;;1535072;75;762;-56
2021/04/25 11:53:42;;;;;;;;;;;20.60;30.10;;;;;;1527355;75;697;-58
2021/04/25 11:55:44;;;;;;;;;;;20.70;30.30;;;;;;1535043;75;723;-56
2021/04/25 11:57:47;;;;;;;;;;;20.80;30.20;;;;;;1538965;75;685;-54
2021/04/25 11:59:56;;;;;;;;;;;20.90;30.30;;;;;;1541534;75;1143;-56
2021/04/25 12:02:07;;;;;;;;;;;21.00;29.80;;;;;;1544133;75;900;-55
2021/04/25 12:04:09;;;;;;;;;;;21.00;29.20;;;;;;1546842;75;788;-56
2021/04/25 12:06:11;;;;;;;;;;;20.90;29.50;;;;;;1543155;75;739;-58
2021/04/25 12:08:14;;;;;;;;;;;20.90;29.20;;;;;;1542447;75;741;-58
2021/04/25 12:10:17;;;;;;;;;;;20.80;29.40;;;;;;1547708;75;1145;-56